createdAt,value
2022-09-20T00:00:02.994Z,22.3
2022-09-20T00:02:02.306Z,22.3
2022-09-20T00:04:04.705Z,22.3
2022-09-20T00:06:03.874Z,22.3
2022-09-20T00:08:04.243Z,22.3
2022-09-20T00:10:02.233Z,22.3
2022-09-20T00:12:03.347Z,22.3
2022-09-20T00:14:07.949Z,22.2
2022-09-20T00:16:06.905Z,22.2
2022-09-20T00:18:02.404Z,22.2
2022-09-20T00:20:02.507Z,22.2
2022-09-20T00:22:02.173Z,22.1
2022-09-20T00:24:02.762Z,22.1
2022-09-20T00:26:04.347Z,22.1
2022-09-20T00:28:02.658Z,22.1
2022-09-20T00:30:03.027Z,21.9
2022-09-20T00:32:02.579Z,21.9
2022-09-20T00:34:11.610Z,21.8
2022-09-20T00:36:02.904Z,21.8
2022-09-20T00:38:02.169Z,21.8
2022-09-20T00:40:06.314Z,21.7
2022-09-20T00:42:02.274Z,21.7
2022-09-20T00:44:03.584Z,21.6
2022-09-20T00:46:04.262Z,21.6
2022-09-20T00:48:07.546Z,21.5
2022-09-20T00:50:12.687Z,21.4
2022-09-20T00:52:03.540Z,21.4
2022-09-20T00:54:06.246Z,21.3
2022-09-20T00:56:07.406Z,21.2
2022-09-20T00:58:03.020Z,21.2
2022-09-20T01:00:06.209Z,21.1
2022-09-20T01:02:06.667Z,21.0
2022-09-20T01:04:03.682Z,20.9
2022-09-20T01:06:06.884Z,20.8
2022-09-20T01:08:04.137Z,20.8
2022-09-20T01:10:02.794Z,20.7
2022-09-20T01:12:07.410Z,20.6
2022-09-20T01:14:02.237Z,20.6
2022-09-20T01:16:05.823Z,20.4
2022-09-20T01:18:05.115Z,20.4
2022-09-20T01:20:10.713Z,20.3
2022-09-20T01:22:06.737Z,20.3
2022-09-20T01:24:11.490Z,20.2
2022-09-20T01:26:21.266Z,20.1
2022-09-20T01:28:02.288Z,20.1
2022-09-20T01:30:08.572Z,20.0
2022-09-20T01:32:09.202Z,19.9
2022-09-20T01:34:08.220Z,19.9
2022-09-20T01:36:06.325Z,19.9
2022-09-20T01:38:18.981Z,19.8
2022-09-20T01:40:11.287Z,19.8
2022-09-20T01:42:07.150Z,19.7
2022-09-20T01:44:09.680Z,19.6
2022-09-20T01:46:13.158Z,19.5
2022-09-20T01:48:13.689Z,19.4
2022-09-20T01:50:08.523Z,19.4
2022-09-20T01:52:21.224Z,19.3
2022-09-20T01:54:21.388Z,19.2
2022-09-20T01:56:21.257Z,19.1
2022-09-20T01:58:21.233Z,19.1
2022-09-20T02:00:08.496Z,18.9
2022-09-20T02:02:10.153Z,18.8
2022-09-20T02:04:20.631Z,18.8
2022-09-20T02:06:12.634Z,18.7
2022-09-20T02:08:21.223Z,18.7
2022-09-20T02:10:21.071Z,18.6
2022-09-20T02:12:21.476Z,18.4
2022-09-20T02:14:12.619Z,18.3
2022-09-20T02:16:21.920Z,18.3
2022-09-20T02:18:12.538Z,18.2
2022-09-20T02:20:11.485Z,18.1
2022-09-20T02:22:14.265Z,18.0
2022-09-20T02:24:17.535Z,17.9
2022-09-20T02:26:12.964Z,17.8
2022-09-20T02:28:14.714Z,17.8
2022-09-20T02:30:15.237Z,17.7
2022-09-20T02:32:17.383Z,17.6
2022-09-20T02:34:21.272Z,17.5
2022-09-20T02:36:21.267Z,17.4
2022-09-20T02:38:12.713Z,17.3
2022-09-20T02:40:18.514Z,17.2
2022-09-20T02:42:12.479Z,17.1
2022-09-20T02:44:13.512Z,17.1
2022-09-20T02:46:10.531Z,16.9
2022-09-20T02:48:05.889Z,16.9
2022-09-20T02:50:17.892Z,16.8
2022-09-20T02:52:13.464Z,16.8
2022-09-20T02:54:13.728Z,16.7
2022-09-20T02:56:11.726Z,16.7
2022-09-20T02:58:18.063Z,16.6
2022-09-20T03:00:05.650Z,16.5
2022-09-20T03:02:11.563Z,16.4
2022-09-20T03:04:12.709Z,16.3
2022-09-20T03:06:11.371Z,16.3
2022-09-20T03:08:19.228Z,16.2
2022-09-20T03:10:14.887Z,16.2
2022-09-20T03:12:15.304Z,16.2
2022-09-20T03:14:10.572Z,16.1
2022-09-20T03:16:09.887Z,16.0
2022-09-20T03:18:12.013Z,15.9
2022-09-20T03:20:12.608Z,15.9
2022-09-20T03:22:12.703Z,15.8
2022-09-20T03:24:10.323Z,15.8
2022-09-20T03:26:17.151Z,15.7
2022-09-20T03:28:15.112Z,15.7
2022-09-20T03:30:21.266Z,15.6
2022-09-20T03:32:17.972Z,15.6
2022-09-20T03:34:16.353Z,15.6
2022-09-20T03:36:18.427Z,15.5
2022-09-20T03:38:17.995Z,15.4
2022-09-20T03:40:21.265Z,15.4
2022-09-20T03:42:16.323Z,15.3
2022-09-20T03:44:16.079Z,15.3
2022-09-20T03:46:16.992Z,15.3
2022-09-20T03:48:20.528Z,15.3
2022-09-20T03:50:19.159Z,15.2
2022-09-20T03:52:17.164Z,15.2
2022-09-20T03:54:21.237Z,15.1
2022-09-20T03:56:19.672Z,15.1
2022-09-20T03:58:13.018Z,15.1
2022-09-20T04:00:20.581Z,15.0
2022-09-20T04:02:21.361Z,14.9
2022-09-20T04:04:14.051Z,14.9
2022-09-20T04:06:18.562Z,14.9
2022-09-20T04:08:16.535Z,14.9
2022-09-20T04:10:13.518Z,14.9
2022-09-20T04:12:12.142Z,14.8
2022-09-20T04:14:14.912Z,14.8
2022-09-20T04:16:20.548Z,14.8
2022-09-20T04:18:10.739Z,14.8
2022-09-20T04:20:07.087Z,14.8
2022-09-20T04:22:03.309Z,14.8
2022-09-20T04:24:12.473Z,14.7
2022-09-20T04:26:03.864Z,14.7
2022-09-20T04:28:09.566Z,14.7
2022-09-20T04:30:06.174Z,14.6
2022-09-20T04:32:14.274Z,14.6
2022-09-20T04:34:09.119Z,14.5
2022-09-20T04:36:28.241Z,14.4
2022-09-20T04:38:05.170Z,14.4
2022-09-20T04:40:15.363Z,14.4
2022-09-20T04:42:21.651Z,14.3
2022-09-20T04:44:21.763Z,14.3
2022-09-20T04:46:21.470Z,14.3
2022-09-20T04:48:21.304Z,14.3
2022-09-20T04:50:21.432Z,14.2
2022-09-20T04:52:21.235Z,14.2
2022-09-20T04:54:21.426Z,14.1
2022-09-20T04:56:07.865Z,14.1
2022-09-20T04:58:21.470Z,14.1
2022-09-20T05:00:08.450Z,14.1
2022-09-20T05:02:21.281Z,14.0
2022-09-20T05:04:21.696Z,13.9
2022-09-20T05:06:19.874Z,13.9
2022-09-20T05:08:21.236Z,13.9
2022-09-20T05:10:23.722Z,13.9
2022-09-20T05:12:21.286Z,13.8
2022-09-20T05:14:22.500Z,13.8
2022-09-20T05:16:05.869Z,13.8
2022-09-20T05:18:21.333Z,13.8
2022-09-20T05:20:23.749Z,13.8
2022-09-20T05:22:17.975Z,13.8
2022-09-20T05:24:16.966Z,13.7
2022-09-20T05:26:14.879Z,13.7
2022-09-20T05:28:10.405Z,13.7
2022-09-20T05:30:08.467Z,13.7
2022-09-20T05:32:12.702Z,13.7
2022-09-20T05:34:09.938Z,13.7
2022-09-20T05:36:11.132Z,13.6
2022-09-20T05:38:13.247Z,13.6
2022-09-20T05:40:13.919Z,13.6
2022-09-20T05:42:16.335Z,13.6
2022-09-20T05:44:12.330Z,13.6
2022-09-20T05:46:14.014Z,13.6
2022-09-20T05:48:13.682Z,13.6
2022-09-20T05:50:19.522Z,13.6
2022-09-20T05:52:21.422Z,13.6
2022-09-20T05:54:21.274Z,13.6
2022-09-20T05:56:11.942Z,13.6
2022-09-20T05:58:19.179Z,13.5
2022-09-20T06:00:10.234Z,13.5
2022-09-20T06:02:21.253Z,13.5
2022-09-20T06:04:12.964Z,13.5
2022-09-20T06:06:10.847Z,13.4
2022-09-20T06:08:15.128Z,13.4
2022-09-20T06:10:23.077Z,13.4
2022-09-20T06:12:11.556Z,13.4
2022-09-20T06:14:14.868Z,13.4
2022-09-20T06:16:05.126Z,13.4
2022-09-20T06:18:13.573Z,13.4
2022-09-20T06:20:18.012Z,13.3
2022-09-20T06:22:11.760Z,13.3
2022-09-20T06:24:04.492Z,13.3
2022-09-20T06:26:07.880Z,13.3
2022-09-20T06:28:10.199Z,13.3
2022-09-20T06:30:07.279Z,13.3
2022-09-20T06:32:02.550Z,13.3
2022-09-20T06:34:05.679Z,13.2
2022-09-20T06:36:18.363Z,13.2
2022-09-20T06:38:27.443Z,13.2
2022-09-20T06:40:24.145Z,13.2
2022-09-20T06:42:02.242Z,13.2
2022-09-20T06:44:05.109Z,13.1
2022-09-20T06:46:03.083Z,13.1
2022-09-20T06:48:02.600Z,13.1
2022-09-20T06:50:02.155Z,13.0
2022-09-20T06:52:04.343Z,13.0
2022-09-20T06:54:03.410Z,13.0
2022-09-20T06:56:03.176Z,12.9
2022-09-20T06:58:02.189Z,12.9
2022-09-20T07:00:03.676Z,12.9
2022-09-20T07:02:02.751Z,12.9
2022-09-20T07:04:03.060Z,12.9
2022-09-20T07:06:04.035Z,12.9
2022-09-20T07:08:03.606Z,12.9
2022-09-20T07:10:02.210Z,12.8
2022-09-20T07:12:02.838Z,12.8
2022-09-20T07:14:03.639Z,12.8
2022-09-20T07:16:03.153Z,12.8
2022-09-20T07:18:02.209Z,12.8
2022-09-20T07:20:02.690Z,12.8
2022-09-20T07:22:02.800Z,12.8
2022-09-20T07:24:02.770Z,12.7
2022-09-20T07:26:02.243Z,12.7
2022-09-20T07:28:02.427Z,12.7
2022-09-20T07:30:02.263Z,12.7
2022-09-20T07:32:03.871Z,12.7
2022-09-20T07:34:02.155Z,12.6
2022-09-20T07:36:02.709Z,12.6
2022-09-20T07:38:02.655Z,12.6
2022-09-20T07:40:02.535Z,12.6
2022-09-20T07:42:05.863Z,12.6
2022-09-20T07:44:12.063Z,12.6
2022-09-20T07:46:02.993Z,12.5
2022-09-20T07:48:04.928Z,12.6
2022-09-20T07:50:02.762Z,12.5
2022-09-20T07:52:02.525Z,12.5
2022-09-20T07:54:02.187Z,12.5
2022-09-20T07:56:05.051Z,12.4
2022-09-20T07:58:02.147Z,12.4
2022-09-20T08:00:02.653Z,12.3
2022-09-20T08:02:02.765Z,12.3
2022-09-20T08:04:02.466Z,12.3
2022-09-20T08:06:04.883Z,12.3
2022-09-20T08:08:02.810Z,12.3
2022-09-20T08:10:02.195Z,12.2
2022-09-20T08:14:06.023Z,12.3
2022-09-20T08:16:02.594Z,12.2
2022-09-20T08:18:02.429Z,12.2
2022-09-20T08:20:02.635Z,12.2
2022-09-20T08:22:02.181Z,12.2
2022-09-20T08:24:03.549Z,12.2
2022-09-20T08:26:03.179Z,12.1
2022-09-20T08:28:02.441Z,12.1
2022-09-20T08:30:02.858Z,12.1
2022-09-20T08:32:02.864Z,12.0
2022-09-20T08:34:03.431Z,11.9
2022-09-20T08:36:02.700Z,11.9
2022-09-20T08:40:02.650Z,11.8
2022-09-20T08:42:12.468Z,11.8
2022-09-20T08:44:07.434Z,11.8
2022-09-20T08:46:05.753Z,11.7
2022-09-20T08:48:06.289Z,11.7
2022-09-20T08:50:09.348Z,11.7
2022-09-20T08:52:10.365Z,11.6
2022-09-20T08:54:04.147Z,11.6
2022-09-20T08:56:04.256Z,11.6
2022-09-20T08:58:07.548Z,11.6
2022-09-20T09:00:05.374Z,11.5
2022-09-20T09:02:02.251Z,11.4
2022-09-20T09:04:13.784Z,11.5
2022-09-20T09:06:04.145Z,11.4
2022-09-20T09:08:07.813Z,11.4
2022-09-20T09:10:02.730Z,11.4
2022-09-20T09:12:03.821Z,11.4
2022-09-20T09:14:14.480Z,11.4
2022-09-20T09:16:07.432Z,11.3
2022-09-20T09:18:03.109Z,11.3
2022-09-20T09:20:18.037Z,11.2
2022-09-20T09:22:05.093Z,11.2
2022-09-20T09:24:05.532Z,11.2
2022-09-20T09:26:05.321Z,11.1
2022-09-20T09:28:13.112Z,11.1
2022-09-20T09:30:12.472Z,11.1
2022-09-20T09:32:20.002Z,11.1
2022-09-20T09:34:02.582Z,11.1
2022-09-20T09:36:07.496Z,11.1
2022-09-20T09:38:03.247Z,11.0
2022-09-20T09:40:09.399Z,11.0
2022-09-20T09:42:20.776Z,10.9
2022-09-20T09:44:06.137Z,10.9
2022-09-20T09:46:21.718Z,10.9
2022-09-20T09:48:04.671Z,10.8
2022-09-20T09:50:07.413Z,10.8
2022-09-20T09:52:07.218Z,10.8
2022-09-20T09:54:04.577Z,10.8
2022-09-20T09:56:21.194Z,10.7
2022-09-20T09:58:12.439Z,10.7
2022-09-20T10:00:17.825Z,10.6
2022-09-20T10:02:19.927Z,10.6
2022-09-20T10:04:13.826Z,10.6
2022-09-20T10:06:16.301Z,10.6
2022-09-20T10:08:15.087Z,10.6
2022-09-20T10:10:12.487Z,10.6
2022-09-20T10:12:20.316Z,10.6
2022-09-20T10:14:17.877Z,10.6
2022-09-20T10:16:10.015Z,10.6
2022-09-20T10:18:21.208Z,10.6
2022-09-20T10:20:20.085Z,10.5
2022-09-20T10:22:09.306Z,10.5
2022-09-20T10:24:13.663Z,10.5
2022-09-20T10:26:13.115Z,10.4
2022-09-20T10:28:17.108Z,10.4
2022-09-20T10:30:09.578Z,10.3
2022-09-20T10:32:15.403Z,10.3
2022-09-20T10:34:15.607Z,10.2
2022-09-20T10:36:11.859Z,10.1
2022-09-20T10:38:14.138Z,10.1
2022-09-20T10:40:13.213Z,10.0
2022-09-20T10:42:23.920Z,9.9
2022-09-20T10:44:10.562Z,9.9
2022-09-20T10:46:31.295Z,9.9
2022-09-20T10:48:07.819Z,9.9
2022-09-20T10:50:14.940Z,9.9
2022-09-20T10:52:13.248Z,9.9
2022-09-20T10:54:11.105Z,9.9
2022-09-20T10:56:15.790Z,9.9
2022-09-20T10:58:20.353Z,9.8
2022-09-20T11:00:08.317Z,9.8
2022-09-20T11:02:18.268Z,9.8
2022-09-20T11:04:20.947Z,9.8
2022-09-20T11:06:15.348Z,9.8
2022-09-20T11:08:10.082Z,9.8
2022-09-20T11:10:12.479Z,9.8
2022-09-20T11:12:11.235Z,9.8
2022-09-20T11:14:07.802Z,9.8
2022-09-20T11:16:09.295Z,9.8
2022-09-20T11:18:09.852Z,9.8
2022-09-20T11:20:14.640Z,9.8
2022-09-20T11:22:09.908Z,9.9
2022-09-20T11:24:14.092Z,9.8
2022-09-20T11:26:12.730Z,9.8
2022-09-20T11:28:09.972Z,9.8
2022-09-20T11:30:05.077Z,9.8
2022-09-20T11:32:08.422Z,9.8
2022-09-20T11:34:12.631Z,9.8
2022-09-20T11:36:06.832Z,9.8
2022-09-20T11:38:13.033Z,9.8
2022-09-20T11:40:09.813Z,9.8
2022-09-20T11:42:05.060Z,9.8
2022-09-20T11:44:08.671Z,9.8
2022-09-20T11:46:07.585Z,9.8
2022-09-20T11:48:08.004Z,9.7
2022-09-20T11:50:21.213Z,9.7
2022-09-20T11:52:11.392Z,9.7
2022-09-20T11:54:17.640Z,9.7
2022-09-20T11:56:07.867Z,9.6
2022-09-20T11:58:07.735Z,9.6
2022-09-20T12:00:07.122Z,9.6
2022-09-20T12:02:12.851Z,9.5
2022-09-20T12:06:04.336Z,9.4
2022-09-20T12:08:05.767Z,9.4
2022-09-20T12:10:07.969Z,9.3
2022-09-20T12:12:14.773Z,9.2
2022-09-20T12:14:06.094Z,9.2
2022-09-20T12:16:06.859Z,9.2
2022-09-20T12:18:10.148Z,9.2
2022-09-20T12:20:02.167Z,9.1
2022-09-20T12:22:21.229Z,9.1
2022-09-20T12:24:22.072Z,9.0
2022-09-20T12:26:05.000Z,8.9
2022-09-20T12:28:02.281Z,8.9
2022-09-20T12:30:16.419Z,8.8
2022-09-20T12:32:13.274Z,8.8
2022-09-20T12:34:05.465Z,8.8
2022-09-20T12:36:15.278Z,8.7
2022-09-20T12:38:21.226Z,8.7
2022-09-20T12:40:02.308Z,8.7
2022-09-20T12:42:07.407Z,8.6
2022-09-20T12:44:16.124Z,8.6
2022-09-20T12:46:06.352Z,8.6
2022-09-20T12:48:02.346Z,8.6
2022-09-20T12:50:13.298Z,8.5
2022-09-20T12:52:11.852Z,8.5
2022-09-20T12:54:06.786Z,8.5
2022-09-20T12:56:07.659Z,8.4
2022-09-20T12:58:06.138Z,8.5
2022-09-20T13:00:07.895Z,8.4
2022-09-20T13:02:21.248Z,8.5
2022-09-20T13:04:21.520Z,8.5
2022-09-20T13:06:22.549Z,8.6
2022-09-20T13:08:04.919Z,8.6
2022-09-20T13:10:14.861Z,8.6
2022-09-20T13:12:02.885Z,8.6
2022-09-20T13:14:06.885Z,8.6
2022-09-20T13:16:05.718Z,8.6
2022-09-20T13:18:05.377Z,8.6
2022-09-20T13:20:02.820Z,8.6
2022-09-20T13:22:05.948Z,8.6
2022-09-20T13:24:03.996Z,8.6
2022-09-20T13:26:04.026Z,8.6
2022-09-20T13:28:09.466Z,8.6
2022-09-20T13:30:10.021Z,8.6
2022-09-20T13:32:18.337Z,8.6
2022-09-20T13:34:14.120Z,8.5
2022-09-20T13:36:03.937Z,8.5
2022-09-20T13:38:05.638Z,8.5
2022-09-20T13:40:04.060Z,8.5
2022-09-20T13:42:08.784Z,8.5
2022-09-20T13:44:02.715Z,8.4
2022-09-20T13:46:08.301Z,8.4
2022-09-20T13:48:02.366Z,8.4
2022-09-20T13:50:13.103Z,8.4
2022-09-20T13:52:21.080Z,8.4
2022-09-20T13:54:21.734Z,8.4
2022-09-20T13:56:14.232Z,8.4
2022-09-20T13:58:06.013Z,8.4
2022-09-20T14:00:02.502Z,8.4
2022-09-20T14:02:04.246Z,8.3
2022-09-20T14:04:07.253Z,8.3
2022-09-20T14:06:06.793Z,8.3
2022-09-20T14:08:02.773Z,8.4
2022-09-20T14:10:02.351Z,8.3
2022-09-20T14:12:03.955Z,8.3
2022-09-20T14:14:05.766Z,8.3
2022-09-20T14:16:03.802Z,8.3
2022-09-20T14:18:04.235Z,8.3
2022-09-20T14:20:02.640Z,8.3
2022-09-20T14:22:05.187Z,8.3
2022-09-20T14:24:06.515Z,8.2
2022-09-20T14:26:21.919Z,8.2
2022-09-20T14:28:06.406Z,8.1
2022-09-20T14:30:03.453Z,8.1
2022-09-20T14:32:07.733Z,8.1
2022-09-20T14:34:04.467Z,8.1
2022-09-20T14:36:02.521Z,8.0
2022-09-20T14:38:07.962Z,8.0
2022-09-20T14:40:06.817Z,8.0
2022-09-20T14:42:02.423Z,8.0
2022-09-20T14:44:03.840Z,8.0
2022-09-20T14:46:05.117Z,8.1
2022-09-20T14:48:10.349Z,8.0
2022-09-20T14:50:03.452Z,8.0
2022-09-20T14:52:22.212Z,8.1
2022-09-20T14:54:21.523Z,8.1
2022-09-20T14:56:11.044Z,8.1
2022-09-20T14:58:07.755Z,8.1
2022-09-20T15:00:08.124Z,8.1
2022-09-20T15:02:05.179Z,8.2
2022-09-20T15:04:09.509Z,8.2
2022-09-20T15:06:03.136Z,8.2
2022-09-20T15:08:02.441Z,8.3
2022-09-20T15:10:04.565Z,8.3
2022-09-20T15:12:05.982Z,8.3
2022-09-20T15:14:02.341Z,8.3
2022-09-20T15:16:02.642Z,8.4
2022-09-20T15:18:02.717Z,8.4
2022-09-20T15:20:03.582Z,8.4
2022-09-20T15:22:02.325Z,8.6
2022-09-20T15:24:02.319Z,8.6
2022-09-20T15:26:03.742Z,8.7
2022-09-20T15:28:03.666Z,8.7
2022-09-20T15:30:02.189Z,8.7
2022-09-20T15:32:05.441Z,8.8
2022-09-20T15:34:02.219Z,8.8
2022-09-20T15:36:03.812Z,8.8
2022-09-20T15:38:02.402Z,8.8
2022-09-20T15:40:02.917Z,8.9
2022-09-20T15:42:02.867Z,9.0
2022-09-20T15:44:03.422Z,9.1
2022-09-20T15:46:18.709Z,9.1
2022-09-20T15:48:03.030Z,9.2
2022-09-20T15:50:02.634Z,9.2
2022-09-20T15:52:02.785Z,9.3
2022-09-20T15:54:05.867Z,9.4
2022-09-20T15:56:05.610Z,9.5
2022-09-20T15:58:03.591Z,9.6
2022-09-20T16:00:02.520Z,9.6
2022-09-20T16:02:02.428Z,9.7
2022-09-20T16:04:07.111Z,9.8
2022-09-20T16:06:04.992Z,9.8
2022-09-20T16:08:02.394Z,9.9
2022-09-20T16:10:02.271Z,10.1
2022-09-20T16:12:04.156Z,10.2
2022-09-20T16:14:04.245Z,10.3
2022-09-20T16:16:03.757Z,10.4
2022-09-20T16:18:11.612Z,10.6
2022-09-20T16:20:02.903Z,10.7
2022-09-20T16:22:02.183Z,10.9
2022-09-20T16:24:03.102Z,11.1
2022-09-20T16:26:03.883Z,11.2
2022-09-20T16:28:02.605Z,11.3
2022-09-20T16:30:03.757Z,11.5
2022-09-20T16:32:03.257Z,11.6
2022-09-20T16:34:03.676Z,11.8
2022-09-20T16:36:02.971Z,11.9
2022-09-20T16:38:03.064Z,12.1
2022-09-20T16:40:03.591Z,12.2
2022-09-20T16:42:05.071Z,12.3
2022-09-20T16:44:03.190Z,12.6
2022-09-20T16:46:02.943Z,12.8
2022-09-20T16:48:07.766Z,13.1
2022-09-20T16:50:02.879Z,13.3
2022-09-20T16:52:05.128Z,13.6
2022-09-20T16:54:04.878Z,13.8
2022-09-20T16:56:05.804Z,14.0
2022-09-20T16:58:02.427Z,14.2
2022-09-20T17:00:02.627Z,14.4
2022-09-20T17:02:02.548Z,14.7
2022-09-20T17:04:04.808Z,14.9
2022-09-20T17:06:04.362Z,15.1
2022-09-20T17:08:03.250Z,15.3
2022-09-20T17:10:02.472Z,15.4
2022-09-20T17:12:03.870Z,15.7
2022-09-20T17:14:04.805Z,15.8
2022-09-20T17:16:03.959Z,15.9
2022-09-20T17:18:05.019Z,16.1
2022-09-20T17:20:04.146Z,16.1
2022-09-20T17:22:02.295Z,16.2
2022-09-20T17:24:05.490Z,16.3
2022-09-20T17:26:06.529Z,16.5
2022-09-20T17:28:02.451Z,16.6
2022-09-20T17:30:03.738Z,16.7
2022-09-20T17:32:02.582Z,16.8
2022-09-20T17:34:06.165Z,16.8
2022-09-20T17:36:03.761Z,16.9
2022-09-20T17:38:02.547Z,16.9
2022-09-20T17:40:03.548Z,17.1
2022-09-20T17:42:02.200Z,17.1
2022-09-20T17:44:07.549Z,17.1
2022-09-20T17:46:08.521Z,17.2
2022-09-20T17:48:02.820Z,17.3
2022-09-20T17:50:02.573Z,17.3
2022-09-20T17:52:07.556Z,17.4
2022-09-20T17:54:03.073Z,17.6
2022-09-20T17:56:04.273Z,17.7
2022-09-20T17:58:02.197Z,17.9
2022-09-20T18:00:02.675Z,18.1
2022-09-20T18:02:02.958Z,18.2
2022-09-20T18:04:04.471Z,18.4
2022-09-20T18:06:12.412Z,18.6
2022-09-20T18:08:03.837Z,18.8
2022-09-20T18:10:02.839Z,19.2
2022-09-20T18:12:04.532Z,19.4
2022-09-20T18:14:04.599Z,19.7
2022-09-20T18:16:02.504Z,19.8
2022-09-20T18:18:02.686Z,19.9
2022-09-20T18:20:02.534Z,20.1
2022-09-20T18:22:03.734Z,20.1
2022-09-20T18:24:06.051Z,20.2
2022-09-20T18:26:15.341Z,20.2
2022-09-20T18:28:02.287Z,20.3
2022-09-20T18:30:02.144Z,20.4
2022-09-20T18:32:04.087Z,20.7
2022-09-20T18:34:04.147Z,20.8
2022-09-20T18:36:03.772Z,20.8
2022-09-20T18:38:02.890Z,20.8
2022-09-20T18:40:03.405Z,20.8
2022-09-20T18:42:03.618Z,20.9
2022-09-20T18:44:04.443Z,21.0
2022-09-20T18:46:02.196Z,21.2
2022-09-20T18:48:02.640Z,21.3
2022-09-20T18:50:02.410Z,21.4
2022-09-20T18:52:03.247Z,21.6
2022-09-20T18:54:02.346Z,21.7
2022-09-20T18:56:06.426Z,21.9
2022-09-20T18:58:02.927Z,22.0
2022-09-20T19:00:04.260Z,22.1
2022-09-20T19:02:20.590Z,22.1
2022-09-20T19:04:11.276Z,22.1
2022-09-20T19:06:08.820Z,22.1
2022-09-20T19:08:18.111Z,21.9
2022-09-20T19:10:11.936Z,21.9
2022-09-20T19:12:07.373Z,22.0
2022-09-20T19:14:07.699Z,21.9
2022-09-20T19:16:12.054Z,21.9
2022-09-20T19:18:15.017Z,21.9
2022-09-20T19:20:09.802Z,21.9
2022-09-20T19:22:13.486Z,22.0
2022-09-20T19:24:14.102Z,22.2
2022-09-20T19:26:08.193Z,22.3
2022-09-20T19:28:02.462Z,22.4
2022-09-20T19:30:02.543Z,22.5
2022-09-20T19:32:02.710Z,22.6
2022-09-20T19:34:12.525Z,22.6
2022-09-20T19:36:02.997Z,22.5
2022-09-20T19:38:15.061Z,22.4
2022-09-20T19:40:17.552Z,22.5
2022-09-20T19:42:09.623Z,22.6
2022-09-20T19:44:14.570Z,22.6
2022-09-20T19:46:13.384Z,22.6
2022-09-20T19:48:10.676Z,22.6
2022-09-20T19:50:15.669Z,22.6
2022-09-20T19:52:04.165Z,22.7
2022-09-20T19:54:02.583Z,22.8
2022-09-20T19:56:14.637Z,22.8
2022-09-20T19:58:03.511Z,22.9
2022-09-20T20:00:08.711Z,23.2
2022-09-20T20:02:03.654Z,23.3
2022-09-20T20:04:03.404Z,23.4
2022-09-20T20:06:09.107Z,23.6
2022-09-20T20:08:16.433Z,23.7
2022-09-20T20:10:13.787Z,23.8
2022-09-20T20:12:14.161Z,24.1
2022-09-20T20:14:12.016Z,24.2
2022-09-20T20:16:05.053Z,24.3
2022-09-20T20:18:09.356Z,24.4
2022-09-20T20:20:15.849Z,24.4
2022-09-20T20:22:10.527Z,24.3
2022-09-20T20:24:14.921Z,24.3
2022-09-20T20:26:07.856Z,24.3
2022-09-20T20:28:02.269Z,24.3
2022-09-20T20:30:02.169Z,24.2
2022-09-20T20:32:02.563Z,24.2
2022-09-20T20:34:02.162Z,24.2
2022-09-20T20:36:02.862Z,24.1
2022-09-20T20:38:11.110Z,24.2
2022-09-20T20:40:02.391Z,24.2
2022-09-20T20:42:03.829Z,24.2
2022-09-20T20:44:05.898Z,24.3
2022-09-20T20:46:03.594Z,24.3
2022-09-20T20:48:02.375Z,24.3
2022-09-20T20:50:02.363Z,24.3
2022-09-20T20:52:04.960Z,24.3
2022-09-20T20:54:04.164Z,24.4
2022-09-20T20:56:06.755Z,24.4
2022-09-20T20:58:02.199Z,24.5
2022-09-20T21:00:02.730Z,24.5
2022-09-20T21:02:07.636Z,24.6
2022-09-20T21:04:04.217Z,24.6
2022-09-20T21:06:03.907Z,24.6
2022-09-20T21:08:02.723Z,24.6
2022-09-20T21:10:02.302Z,24.6
2022-09-20T21:12:02.666Z,24.6
2022-09-20T21:14:06.136Z,24.6
2022-09-20T21:16:02.855Z,24.5
2022-09-20T21:18:02.177Z,24.5
2022-09-20T21:20:02.713Z,24.5
2022-09-20T21:22:02.179Z,24.4
2022-09-20T21:24:04.962Z,24.4
2022-09-20T21:26:07.979Z,24.4
2022-09-20T21:28:02.416Z,24.4
2022-09-20T21:30:02.867Z,24.4
2022-09-20T21:32:02.367Z,24.4
2022-09-20T21:34:04.627Z,24.4
2022-09-20T21:36:03.407Z,24.4
2022-09-20T21:38:02.949Z,24.4
2022-09-20T21:40:02.679Z,24.5
2022-09-20T21:42:02.836Z,24.5
2022-09-20T21:44:04.997Z,24.6
2022-09-20T21:46:03.583Z,24.6
2022-09-20T21:48:04.941Z,24.6
2022-09-20T21:50:02.444Z,24.7
2022-09-20T21:52:03.455Z,24.8
2022-09-20T21:54:02.598Z,24.8
2022-09-20T21:56:04.058Z,24.8
2022-09-20T21:58:02.415Z,24.9
2022-09-20T22:00:02.653Z,24.9
2022-09-20T22:02:02.848Z,24.9
2022-09-20T22:04:06.621Z,24.9
2022-09-20T22:06:08.832Z,24.8
2022-09-20T22:08:02.975Z,24.8
2022-09-20T22:10:02.256Z,24.8
2022-09-20T22:12:02.629Z,24.8
2022-09-20T22:14:02.949Z,24.8
2022-09-20T22:16:04.935Z,24.8
2022-09-20T22:18:04.589Z,24.8
2022-09-20T22:20:03.875Z,24.9
2022-09-20T22:22:02.886Z,24.9
2022-09-20T22:24:05.439Z,24.9
2022-09-20T22:26:05.812Z,24.8
2022-09-20T22:28:02.433Z,24.8
2022-09-20T22:30:05.136Z,24.8
2022-09-20T22:32:03.072Z,24.8
2022-09-20T22:34:04.844Z,24.8
2022-09-20T22:36:06.849Z,24.8
2022-09-20T22:38:02.424Z,24.8
2022-09-20T22:40:02.631Z,24.8
2022-09-20T22:42:02.333Z,24.7
2022-09-20T22:44:02.580Z,24.7
2022-09-20T22:46:04.225Z,24.7
2022-09-20T22:48:03.126Z,24.8
2022-09-20T22:50:02.528Z,24.8
2022-09-20T22:52:02.415Z,24.8
2022-09-20T22:54:06.419Z,24.8
2022-09-20T22:56:04.806Z,24.8
2022-09-20T22:58:02.409Z,24.8
2022-09-20T23:00:03.927Z,24.8
2022-09-20T23:02:02.967Z,24.8
2022-09-20T23:04:05.748Z,24.8
2022-09-20T23:06:03.045Z,24.8
2022-09-20T23:08:02.394Z,24.8
2022-09-20T23:10:02.283Z,24.7
2022-09-20T23:12:03.734Z,24.7
2022-09-20T23:14:05.501Z,24.7
2022-09-20T23:16:11.641Z,24.6
2022-09-20T23:18:02.242Z,24.6
2022-09-20T23:20:02.661Z,24.6
2022-09-20T23:22:02.235Z,24.6
2022-09-20T23:24:04.533Z,24.6
2022-09-20T23:26:07.522Z,24.6
2022-09-20T23:28:03.149Z,24.6
2022-09-20T23:30:02.311Z,24.6
2022-09-20T23:32:03.003Z,24.5
2022-09-20T23:34:05.201Z,24.4
2022-09-20T23:36:08.451Z,24.4
2022-09-20T23:38:02.429Z,24.3
2022-09-20T23:40:03.013Z,24.2
2022-09-20T23:42:02.368Z,24.2
2022-09-20T23:44:03.447Z,24.1
2022-09-20T23:46:03.257Z,24.1
2022-09-20T23:48:03.668Z,24.0
2022-09-20T23:50:02.495Z,23.9
2022-09-20T23:52:03.244Z,23.9
2022-09-20T23:54:03.322Z,23.8
2022-09-20T23:56:04.050Z,23.9
2022-09-20T23:58:02.834Z,23.8
